Search METAR Data

METAR Data for ENHK:

ENHK 220450Z AUTO 11007KT 9999 NCD 03/M03 Q1026